KAID

Anderson Municipal-Darlington Field Airport

Anderson, Indiana, USA
METAR KAID 231445Z 00000KT 10SM CLR 20/14 A3019
Observed Flight Rules
May-23 @ 14:45 UTC (25 minutes ago) Visual Flight Rules
Visibility Clouds
10 miles
  • Clear skies
Temperatures Readings
Current 20°C / 68°F
Dewpoint 14°C / 57°F
Humidity 69%
Altimeter 30.19" Hg
Pressure 1022 hPa
Elevation 280
METAR KAID 231445Z 00000KT 10SM CLR 20/14 A3019
Observed Flight Rules
May-23 @ 14:45 UTC
(25 minutes ago)
VFR
Clouds
  • Clear skies
Temperature Dewpoint
20°C / 68°F 14°C / 57°F
Humidity Altimeter Pressure
69% 30.19" Hg 1022 hPa